createdAt,value
2023-04-19T00:01:32.772Z,1.87
2023-04-19T00:03:59.921Z,3.53
2023-04-19T00:06:30.674Z,2.00
2023-04-19T00:08:57.757Z,2.50
2023-04-19T00:11:24.878Z,2.53
2023-04-19T00:13:51.959Z,2.27
2023-04-19T00:16:18.952Z,2.70
2023-04-19T00:18:46.813Z,2.20
2023-04-19T00:21:13.864Z,2.43
2023-04-19T00:23:40.937Z,2.10
2023-04-19T00:26:07.913Z,2.00
2023-04-19T00:28:35.418Z,2.73
2023-04-19T00:31:02.378Z,2.30
2023-04-19T00:33:31.329Z,2.07
2023-04-19T00:35:58.430Z,2.30
2023-04-19T00:38:25.567Z,2.67
2023-04-19T00:40:52.622Z,1.93
2023-04-19T00:43:20.204Z,2.47
2023-04-19T00:45:49.486Z,1.87
2023-04-19T00:48:16.972Z,2.47
2023-04-19T00:50:46.232Z,1.70
2023-04-19T00:53:13.368Z,2.07
2023-04-19T00:55:40.521Z,2.23
2023-04-19T00:58:08.862Z,2.37
2023-04-19T01:00:37.013Z,2.20
2023-04-19T01:03:04.348Z,1.93
2023-04-19T01:05:31.651Z,1.93
2023-04-19T01:07:58.622Z,1.80
2023-04-19T01:10:27.078Z,2.40
2023-04-19T01:12:54.088Z,2.43
2023-04-19T01:15:21.205Z,2.67
2023-04-19T01:17:49.892Z,3.37
2023-04-19T01:20:16.846Z,2.70
2023-04-19T01:22:44.617Z,2.10
2023-04-19T01:25:11.764Z,2.20
2023-04-19T01:27:38.824Z,2.40
2023-04-19T01:30:06.637Z,1.87
2023-04-19T01:32:33.698Z,2.10
2023-04-19T01:35:00.871Z,1.93
2023-04-19T01:37:30.343Z,2.07
2023-04-19T01:39:57.480Z,2.17
2023-04-19T01:42:24.823Z,2.07
2023-04-19T01:44:52.712Z,2.10
2023-04-19T01:47:19.852Z,1.80
2023-04-19T01:49:47.099Z,2.40
2023-04-19T01:52:15.865Z,2.20
2023-04-19T01:54:42.852Z,2.27
2023-04-19T01:57:09.878Z,2.03
2023-04-19T01:59:36.750Z,2.23
2023-04-19T02:02:07.168Z,1.73
2023-04-19T02:04:34.927Z,2.00
2023-04-19T02:07:01.847Z,2.00
2023-04-19T02:09:29.403Z,1.40
2023-04-19T02:11:56.351Z,2.07
2023-04-19T02:14:23.191Z,1.70
2023-04-19T02:16:50.265Z,1.50
2023-04-19T02:19:18.131Z,1.70
2023-04-19T02:21:45.011Z,1.70
2023-04-19T02:24:14.628Z,1.93
2023-04-19T02:26:42.599Z,1.63
2023-04-19T02:29:09.955Z,1.70
2023-04-19T02:31:38.671Z,1.80
2023-04-19T02:34:09.515Z,1.90
2023-04-19T02:36:36.521Z,2.27
2023-04-19T02:39:05.586Z,1.93
2023-04-19T02:41:32.760Z,2.40
2023-04-19T02:44:02.247Z,2.77
2023-04-19T02:46:29.323Z,1.77
2023-04-19T02:48:56.575Z,1.97
2023-04-19T02:51:23.572Z,2.20
2023-04-19T02:53:50.614Z,1.87
2023-04-19T02:56:17.717Z,2.20
2023-04-19T02:58:45.593Z,1.63
2023-04-19T03:01:12.693Z,1.73
2023-04-19T03:03:39.768Z,1.70
2023-04-19T03:06:07.142Z,1.63
2023-04-19T03:08:34.218Z,1.57
2023-04-19T03:11:01.256Z,1.40
2023-04-19T03:13:30.579Z,2.00
2023-04-19T03:15:57.594Z,1.37
2023-04-19T03:18:25.068Z,2.67
2023-04-19T03:20:55.224Z,1.53
2023-04-19T03:23:22.353Z,1.20
2023-04-19T03:25:51.290Z,1.30
2023-04-19T03:28:32.914Z,1.30
2023-04-19T03:31:35.498Z,1.20
2023-04-19T03:34:03.976Z,1.40
2023-04-19T03:36:40.459Z,1.50
2023-04-19T03:39:08.157Z,1.73
2023-04-19T03:41:37.072Z,1.60
2023-04-19T03:44:22.657Z,1.87
2023-04-19T03:46:49.674Z,1.90
2023-04-19T03:49:21.389Z,1.87
2023-04-19T03:51:54.188Z,2.40
2023-04-19T03:54:21.126Z,2.60
2023-04-19T03:56:48.102Z,2.60
2023-04-19T03:59:15.798Z,2.70
2023-04-19T04:01:43.379Z,2.63
2023-04-19T04:04:11.956Z,1.97
2023-04-19T04:06:39.835Z,2.07
2023-04-19T04:09:07.712Z,2.50
2023-04-19T04:11:35.232Z,2.50
2023-04-19T04:14:02.549Z,2.27
2023-04-19T04:16:35.279Z,2.53
2023-04-19T04:19:02.342Z,3.13
2023-04-19T04:21:32.302Z,3.67
2023-04-19T04:24:02.123Z,2.87
2023-04-19T04:27:04.783Z,2.17
2023-04-19T04:29:34.722Z,1.73
2023-04-19T04:32:08.360Z,2.30
2023-04-19T04:34:38.686Z,2.60
2023-04-19T04:37:10.625Z,2.47
2023-04-19T04:39:39.885Z,2.20
2023-04-19T04:42:09.197Z,2.77
2023-04-19T04:44:37.452Z,2.30
2023-04-19T04:47:05.341Z,2.20
2023-04-19T04:49:38.496Z,2.53
2023-04-19T04:52:06.533Z,2.37
2023-04-19T04:54:39.367Z,1.77
2023-04-19T04:57:15.904Z,1.90
2023-04-19T04:59:43.204Z,1.30
2023-04-19T05:02:11.006Z,1.47
2023-04-19T05:04:39.218Z,1.60
2023-04-19T05:07:06.436Z,1.40
2023-04-19T05:09:33.384Z,1.80
2023-04-19T05:12:01.818Z,1.50
2023-04-19T05:14:29.929Z,1.73
2023-04-19T05:16:56.852Z,1.60
2023-04-19T05:19:23.913Z,1.97
2023-04-19T05:21:57.320Z,1.50
2023-04-19T05:24:24.321Z,1.63
2023-04-19T05:26:51.867Z,1.77
2023-04-19T05:29:18.871Z,1.17
2023-04-19T05:31:48.985Z,1.43
2023-04-19T05:34:22.068Z,1.37
2023-04-19T05:36:49.734Z,1.53
2023-04-19T05:39:17.362Z,2.27
2023-04-19T05:41:44.500Z,1.90
2023-04-19T05:44:11.650Z,1.87
2023-04-19T05:46:38.659Z,2.13
2023-04-19T05:49:08.533Z,2.23
2023-04-19T05:52:04.989Z,1.83
2023-04-19T05:54:47.461Z,2.40
2023-04-19T05:57:14.555Z,2.00
2023-04-19T05:59:42.579Z,2.33
2023-04-19T06:02:10.976Z,1.73
2023-04-19T06:04:38.391Z,2.20
2023-04-19T06:07:10.531Z,2.23
2023-04-19T06:09:44.910Z,2.40
2023-04-19T06:12:11.947Z,2.20
2023-04-19T06:14:38.821Z,2.50
2023-04-19T06:17:06.206Z,1.87
2023-04-19T06:19:34.046Z,2.23
2023-04-19T06:22:01.564Z,2.07
2023-04-19T06:24:28.850Z,1.93
2023-04-19T06:26:56.892Z,2.10
2023-04-19T06:29:24.204Z,1.80
2023-04-19T06:31:51.552Z,2.70
2023-04-19T06:34:18.922Z,2.57
2023-04-19T06:36:46.189Z,2.30
2023-04-19T06:39:13.274Z,2.70
2023-04-19T06:41:40.178Z,2.30
2023-04-19T06:44:07.369Z,2.43
2023-04-19T06:46:34.367Z,2.97
2023-04-19T06:49:01.183Z,2.30
2023-04-19T06:51:28.141Z,2.40
2023-04-19T06:53:55.367Z,2.47
2023-04-19T06:56:47.749Z,2.87
2023-04-19T06:59:19.968Z,2.27
2023-04-19T07:01:48.223Z,2.17
2023-04-19T07:04:16.137Z,2.20
2023-04-19T07:06:43.647Z,1.77
2023-04-19T07:09:10.681Z,1.50
2023-04-19T07:11:37.584Z,1.30
2023-04-19T07:14:04.535Z,1.13
2023-04-19T07:16:31.617Z,0.87
2023-04-19T07:18:58.690Z,1.03
2023-04-19T07:21:28.795Z,1.07
2023-04-19T07:23:55.809Z,1.00
2023-04-19T07:26:22.632Z,1.03
2023-04-19T07:28:50.457Z,1.20
2023-04-19T07:31:18.597Z,1.20
2023-04-19T07:33:45.983Z,1.10
2023-04-19T07:36:13.918Z,1.10
2023-04-19T07:38:40.765Z,1.00
2023-04-19T07:41:07.720Z,1.30
2023-04-19T07:43:35.155Z,1.10
2023-04-19T07:46:02.556Z,1.30
2023-04-19T07:48:29.728Z,1.10
2023-04-19T07:50:56.726Z,0.90
2023-04-19T07:53:23.597Z,1.77
2023-04-19T07:55:50.453Z,1.97
2023-04-19T07:58:17.561Z,1.50
2023-04-19T08:00:44.437Z,1.73
2023-04-19T08:03:11.595Z,0.80
2023-04-19T08:05:39.305Z,1.17
2023-04-19T08:08:06.300Z,0.93
2023-04-19T08:10:33.586Z,0.93
2023-04-19T08:13:05.207Z,0.70
2023-04-19T08:18:05.294Z,1.97
2023-04-19T08:20:32.848Z,1.00
2023-04-19T08:23:07.225Z,4.27
2023-04-19T08:25:35.207Z,1.40
2023-04-19T08:28:02.377Z,1.30
2023-04-19T08:30:29.233Z,1.13
2023-04-19T08:32:57.450Z,1.07
2023-04-19T08:35:25.394Z,0.70
2023-04-19T08:37:52.653Z,0.73
2023-04-19T08:40:19.717Z,0.93
2023-04-19T08:42:46.618Z,0.70
2023-04-19T08:45:27.581Z,0.70
2023-04-19T08:48:01.516Z,0.80
2023-04-19T08:53:08.540Z,0.67
2023-04-19T08:56:06.780Z,1.13
2023-04-19T08:58:54.932Z,0.70
2023-04-19T09:01:34.731Z,1.33
2023-04-19T09:04:21.688Z,0.90
2023-04-19T09:06:55.731Z,0.80
2023-04-19T09:11:58.273Z,0.80
2023-04-19T09:14:26.695Z,0.90
2023-04-19T09:16:53.911Z,1.37
2023-04-19T09:19:24.822Z,1.27
2023-04-19T09:21:54.714Z,1.10
2023-04-19T09:25:13.809Z,1.17
2023-04-19T09:27:27.938Z,0.93
2023-04-19T09:29:56.963Z,0.80
2023-04-19T09:32:24.406Z,1.00
2023-04-19T09:34:59.144Z,1.00
2023-04-19T09:37:51.433Z,0.97
2023-04-19T09:40:27.066Z,1.40
2023-04-19T09:43:08.835Z,1.10
2023-04-19T09:45:47.341Z,1.13
2023-04-19T09:48:14.399Z,0.73
2023-04-19T09:51:02.331Z,0.80
2023-04-19T09:53:34.644Z,1.77
2023-04-19T09:56:04.159Z,0.83
2023-04-19T09:58:42.501Z,1.33
2023-04-19T10:01:16.256Z,0.60
2023-04-19T10:03:49.939Z,1.20
2023-04-19T10:08:50.388Z,0.67
2023-04-19T10:11:19.900Z,0.93
2023-04-19T10:13:49.051Z,0.80
2023-04-19T10:16:20.004Z,0.60
2023-04-19T10:18:50.314Z,0.63
2023-04-19T10:21:19.353Z,0.97
2023-04-19T10:23:47.196Z,0.70
2023-04-19T10:26:14.242Z,0.97
2023-04-19T10:28:42.492Z,0.60
2023-04-19T10:31:16.269Z,0.80
2023-04-19T10:33:43.439Z,0.97
2023-04-19T10:36:15.071Z,0.90
2023-04-19T10:38:48.276Z,0.90
2023-04-19T10:41:18.305Z,0.80
2023-04-19T10:44:09.483Z,0.80
2023-04-19T10:46:38.651Z,0.87
2023-04-19T10:49:07.888Z,0.90
2023-04-19T10:51:42.447Z,1.07
2023-04-19T10:54:27.533Z,1.37
2023-04-19T10:57:00.626Z,0.53
2023-04-19T10:59:29.964Z,0.90
2023-04-19T11:01:59.697Z,0.70
2023-04-19T11:04:30.794Z,0.93
2023-04-19T11:07:06.276Z,1.20
2023-04-19T11:09:39.178Z,0.80
2023-04-19T11:12:09.905Z,1.40
2023-04-19T11:14:45.432Z,1.67
2023-04-19T11:17:27.854Z,1.00
2023-04-19T11:19:57.014Z,1.20
2023-04-19T11:22:27.017Z,1.07
2023-04-19T11:24:53.902Z,0.97
2023-04-19T11:27:21.617Z,1.20
2023-04-19T11:29:48.574Z,1.30
2023-04-19T11:32:15.634Z,1.10
2023-04-19T11:34:42.748Z,1.10
2023-04-19T11:37:11.030Z,1.30
2023-04-19T11:39:46.644Z,1.00
2023-04-19T11:42:18.433Z,1.30
2023-04-19T11:44:52.622Z,1.20
2023-04-19T11:47:39.778Z,1.23
2023-04-19T11:50:55.918Z,0.93
2023-04-19T11:53:44.127Z,1.10
2023-04-19T11:56:31.148Z,1.03
2023-04-19T11:59:18.319Z,0.93
2023-04-19T12:02:05.776Z,1.37
2023-04-19T12:04:52.929Z,0.70
2023-04-19T12:07:40.215Z,0.87
2023-04-19T12:10:32.293Z,0.90
2023-04-19T12:13:19.476Z,0.60
2023-04-19T12:16:06.956Z,1.10
2023-04-19T12:19:06.326Z,0.60
2023-04-19T12:21:53.184Z,0.87
2023-04-19T12:24:40.222Z,1.37
2023-04-19T12:27:27.959Z,0.83
2023-04-19T12:30:14.960Z,1.23
2023-04-19T12:33:02.020Z,1.23
2023-04-19T12:35:49.240Z,1.00
2023-04-19T12:38:36.023Z,0.90
2023-04-19T12:41:22.946Z,1.00
2023-04-19T12:44:09.842Z,1.00
2023-04-19T12:46:56.857Z,0.90
2023-04-19T12:49:43.709Z,1.10
2023-04-19T12:52:30.938Z,0.70
2023-04-19T12:55:17.794Z,1.00
2023-04-19T12:58:04.898Z,0.70
2023-04-19T13:00:51.776Z,1.03
2023-04-19T13:03:39.024Z,0.73
2023-04-19T13:06:26.307Z,0.90
2023-04-19T13:09:14.874Z,0.87
2023-04-19T13:12:02.366Z,1.07
2023-04-19T13:14:49.506Z,1.10
2023-04-19T13:17:36.723Z,1.00
2023-04-19T13:20:24.256Z,1.00
2023-04-19T13:23:11.167Z,1.10
2023-04-19T13:25:58.386Z,1.00
2023-04-19T13:28:45.321Z,0.90
2023-04-19T13:31:32.522Z,0.80
2023-04-19T13:34:19.537Z,1.30
2023-04-19T13:37:06.978Z,0.93
2023-04-19T13:40:03.984Z,1.07
2023-04-19T13:42:57.973Z,1.57
2023-04-19T13:45:44.979Z,1.00
2023-04-19T13:48:32.026Z,0.73
2023-04-19T13:51:19.678Z,1.07
2023-04-19T13:54:06.890Z,1.30
2023-04-19T13:56:53.810Z,1.10
2023-04-19T13:59:41.142Z,0.90
2023-04-19T14:02:28.750Z,1.00
2023-04-19T14:05:15.822Z,0.83
2023-04-19T14:08:02.725Z,0.87
2023-04-19T14:10:49.755Z,1.00
2023-04-19T14:13:37.030Z,0.90
2023-04-19T14:16:24.561Z,0.90
2023-04-19T14:19:11.621Z,1.00
2023-04-19T14:21:58.805Z,0.93
2023-04-19T14:24:45.766Z,1.30
2023-04-19T14:27:32.809Z,1.10
2023-04-19T14:30:19.665Z,1.07
2023-04-19T14:33:06.683Z,1.87
2023-04-19T14:35:53.495Z,1.70
2023-04-19T14:38:40.490Z,1.07
2023-04-19T14:41:27.285Z,1.10
2023-04-19T14:44:14.638Z,1.03
2023-04-19T14:47:01.475Z,1.17
2023-04-19T14:49:48.644Z,1.73
2023-04-19T14:52:35.668Z,1.30
2023-04-19T14:55:22.681Z,1.03
2023-04-19T14:58:09.529Z,1.07
2023-04-19T15:00:56.610Z,1.37
2023-04-19T15:03:43.743Z,1.50
2023-04-19T15:06:30.917Z,1.80
2023-04-19T15:09:18.172Z,1.10
2023-04-19T15:12:05.422Z,0.90
2023-04-19T15:14:52.372Z,1.40
2023-04-19T15:17:39.525Z,1.00
2023-04-19T15:20:27.052Z,1.30
2023-04-19T15:23:14.105Z,1.37
2023-04-19T15:26:00.948Z,1.77
2023-04-19T15:28:48.047Z,1.20
2023-04-19T15:31:34.979Z,1.30
2023-04-19T15:34:22.890Z,0.90
2023-04-19T15:37:09.766Z,1.17
2023-04-19T15:39:57.068Z,1.27
2023-04-19T15:42:43.864Z,1.20
2023-04-19T15:45:31.957Z,1.30
2023-04-19T15:48:18.891Z,1.40
2023-04-19T15:51:06.073Z,1.30
2023-04-19T15:53:52.916Z,1.50
2023-04-19T15:56:39.918Z,1.17
2023-04-19T15:59:26.739Z,1.30
2023-04-19T16:02:13.876Z,1.40
2023-04-19T16:05:00.889Z,1.10
2023-04-19T16:07:48.516Z,1.10
2023-04-19T16:10:35.468Z,1.73
2023-04-19T16:13:25.438Z,1.40
2023-04-19T16:16:12.316Z,1.10
2023-04-19T16:18:59.422Z,1.13
2023-04-19T16:21:46.350Z,1.43
2023-04-19T16:24:33.462Z,1.20
2023-04-19T16:27:21.401Z,1.50
2023-04-19T16:30:08.455Z,1.30
2023-04-19T16:32:55.372Z,0.93
2023-04-19T16:35:42.885Z,1.40
2023-04-19T16:38:29.820Z,1.20
2023-04-19T16:41:16.709Z,1.20
2023-04-19T16:44:03.629Z,1.30
2023-04-19T16:46:50.837Z,0.87
2023-04-19T16:49:37.883Z,1.00
2023-04-19T16:52:25.006Z,1.30
2023-04-19T16:55:11.882Z,1.27
2023-04-19T16:57:58.988Z,1.40
2023-04-19T17:00:45.845Z,1.33
2023-04-19T17:03:33.056Z,1.10
2023-04-19T17:06:21.070Z,1.10
2023-04-19T17:09:08.173Z,1.40
2023-04-19T17:11:55.082Z,1.50
2023-04-19T17:14:42.819Z,1.27
2023-04-19T17:17:29.686Z,1.00
2023-04-19T17:20:16.693Z,1.73
2023-04-19T17:23:03.971Z,1.13
2023-04-19T17:25:50.962Z,1.23
2023-04-19T17:28:37.801Z,1.40
2023-04-19T17:31:24.915Z,1.57
2023-04-19T17:34:11.736Z,1.33
2023-04-19T17:36:58.701Z,1.60
2023-04-19T17:39:45.845Z,1.73
2023-04-19T17:42:32.731Z,1.53
2023-04-19T17:45:19.596Z,1.50
2023-04-19T17:48:06.612Z,1.37
2023-04-19T17:50:53.604Z,1.43
2023-04-19T17:53:40.462Z,1.80
2023-04-19T17:56:27.402Z,1.53
2023-04-19T17:59:14.531Z,1.57
2023-04-19T18:02:01.673Z,1.47
2023-04-19T18:04:48.720Z,1.23
2023-04-19T18:07:35.774Z,1.80
2023-04-19T18:10:22.885Z,1.30
2023-04-19T18:13:09.938Z,1.70
2023-04-19T18:15:56.850Z,1.60
2023-04-19T18:18:43.818Z,1.50
2023-04-19T18:21:30.929Z,1.70
2023-04-19T18:24:17.881Z,1.60
2023-04-19T18:27:04.935Z,1.83
2023-04-19T18:29:51.932Z,2.50
2023-04-19T18:32:39.353Z,2.40
2023-04-19T18:35:27.502Z,1.93
2023-04-19T18:38:14.491Z,2.20
2023-04-19T18:41:01.318Z,4.70
2023-04-19T18:44:06.835Z,4.33
2023-04-19T18:46:55.151Z,5.00
2023-04-19T18:49:46.149Z,6.03
2023-04-19T18:52:44.983Z,5.53
2023-04-19T18:55:32.097Z,6.43
2023-04-19T18:58:18.968Z,5.20
2023-04-19T19:01:06.218Z,3.60
2023-04-19T19:04:23.527Z,3.40
2023-04-19T19:07:10.806Z,3.87
2023-04-19T19:10:16.802Z,4.67
2023-04-19T19:13:05.138Z,3.63
2023-04-19T19:15:51.988Z,4.77
2023-04-19T19:18:38.986Z,5.03
2023-04-19T19:21:28.640Z,6.37
2023-04-19T19:24:15.654Z,7.40
2023-04-19T19:27:02.994Z,7.50
2023-04-19T19:29:50.701Z,5.90
2023-04-19T19:32:37.726Z,6.57
2023-04-19T19:35:25.311Z,5.87
2023-04-19T19:38:12.174Z,5.30
2023-04-19T19:41:39.873Z,5.90
2023-04-19T19:44:06.129Z,5.83
2023-04-19T19:46:53.322Z,5.30
2023-04-19T19:50:02.005Z,4.33
2023-04-19T19:52:48.051Z,4.60
2023-04-19T19:55:35.065Z,4.50
2023-04-19T19:58:46.227Z,4.97
2023-04-19T20:01:28.931Z,5.67
2023-04-19T20:04:15.960Z,4.90
2023-04-19T20:09:52.815Z,5.17
2023-04-19T20:12:39.646Z,4.43
2023-04-19T20:15:27.204Z,3.90
2023-04-19T20:18:14.056Z,4.87
2023-04-19T20:21:01.010Z,3.77
2023-04-19T20:23:47.816Z,4.50
2023-04-19T20:26:34.767Z,5.30
2023-04-19T20:29:22.110Z,4.80
2023-04-19T20:32:09.047Z,4.37
2023-04-19T20:34:55.905Z,3.83
2023-04-19T20:37:42.993Z,3.30
2023-04-19T20:40:34.865Z,3.07
2023-04-19T20:43:21.940Z,2.80
2023-04-19T20:46:08.914Z,2.50
2023-04-19T20:48:56.038Z,3.23
2023-04-19T20:51:42.873Z,3.30
2023-04-19T20:54:30.050Z,3.57
2023-04-19T20:57:20.401Z,2.47
2023-04-19T21:00:07.444Z,3.17
2023-04-19T21:02:54.434Z,2.30
2023-04-19T21:05:41.769Z,2.00
2023-04-19T21:08:28.607Z,2.60
2023-04-19T21:11:15.512Z,3.30
2023-04-19T21:14:02.334Z,3.33
2023-04-19T21:16:49.245Z,3.20
2023-04-19T21:19:36.140Z,3.33
2023-04-19T21:22:23.301Z,2.40
2023-04-19T21:25:10.144Z,2.70
2023-04-19T21:27:57.197Z,2.30
2023-04-19T21:30:44.100Z,2.73
2023-04-19T21:33:31.178Z,2.53
2023-04-19T21:36:18.020Z,3.30
2023-04-19T21:39:05.351Z,2.80
2023-04-19T21:41:52.269Z,2.40
2023-04-19T21:44:39.736Z,2.33
2023-04-19T21:47:27.149Z,2.20
2023-04-19T21:50:14.134Z,2.53
2023-04-19T21:53:00.968Z,2.73
2023-04-19T21:55:48.081Z,2.87
2023-04-19T21:58:35.147Z,2.50
2023-04-19T22:01:22.123Z,2.80
2023-04-19T22:04:09.180Z,2.87
2023-04-19T22:06:56.127Z,2.70
2023-04-19T22:09:43.062Z,3.40
2023-04-19T22:12:30.027Z,4.10
2023-04-19T22:15:16.983Z,3.67
2023-04-19T22:18:03.952Z,3.37
2023-04-19T22:20:50.906Z,3.13
2023-04-19T22:23:37.838Z,2.33
2023-04-19T22:26:25.038Z,2.70
2023-04-19T22:29:12.204Z,3.13
2023-04-19T22:31:59.189Z,2.00
2023-04-19T22:34:46.184Z,3.40
2023-04-19T22:37:33.165Z,3.10
2023-04-19T22:40:20.088Z,2.53
2023-04-19T22:43:07.128Z,2.43
2023-04-19T22:45:54.059Z,2.50
2023-04-19T22:48:41.106Z,2.20
2023-04-19T22:51:28.139Z,2.50
2023-04-19T22:54:15.525Z,2.30
2023-04-19T22:57:02.787Z,2.20
2023-04-19T22:59:49.717Z,2.37
2023-04-19T23:02:36.758Z,1.80
2023-04-19T23:05:24.538Z,2.10
2023-04-19T23:08:11.435Z,2.10
2023-04-19T23:10:58.461Z,2.10
2023-04-19T23:13:45.334Z,1.87
2023-04-19T23:16:32.346Z,1.80
2023-04-19T23:19:19.372Z,2.03
2023-04-19T23:22:06.451Z,2.07
2023-04-19T23:24:53.382Z,1.90
2023-04-19T23:27:40.372Z,2.10
2023-04-19T23:30:27.790Z,2.00
2023-04-19T23:33:14.730Z,2.60
2023-04-19T23:36:01.656Z,2.03
2023-04-19T23:38:48.743Z,2.03
2023-04-19T23:41:35.634Z,2.20
2023-04-19T23:44:22.747Z,1.73
2023-04-19T23:47:09.731Z,2.17
2023-04-19T23:49:56.683Z,2.23
2023-04-19T23:52:43.816Z,2.03
2023-04-19T23:55:30.697Z,1.70
2023-04-19T23:58:17.764Z,1.80
